sensor_id;sensor_type;location;lat;lon;timestamp;temperature;humidity
22299;DHT22;11317;51.072;17.036;2022-10-15T00:09:03;13.10;70.40
22299;DHT22;11317;51.072;17.036;2022-10-15T00:11:29;12.20;77.80
22299;DHT22;11317;51.072;17.036;2022-10-15T00:13:56;12.80;62.90
22299;DHT22;11317;51.072;17.036;2022-10-15T00:16:24;12.90;53.70
22299;DHT22;11317;51.072;17.036;2022-10-15T00:18:51;12.50;75.10
22299;DHT22;11317;51.072;17.036;2022-10-15T00:21:19;13.50;60.00
22299;DHT22;11317;51.072;17.036;2022-10-15T00:23:46;12.50;53.70
22299;DHT22;11317;51.072;17.036;2022-10-15T00:26:16;12.50;54.50
22299;DHT22;11317;51.072;17.036;2022-10-15T00:28:42;12.40;66.40
22299;DHT22;11317;51.072;17.036;2022-10-15T00:31:15;13.40;52.20
22299;DHT22;11317;51.072;17.036;2022-10-15T00:36:13;12.80;57.80
22299;DHT22;11317;51.072;17.036;2022-10-15T00:38:40;12.30;60.60
22299;DHT22;11317;51.072;17.036;2022-10-15T00:41:07;12.10;77.50
22299;DHT22;11317;51.072;17.036;2022-10-15T00:43:48;12.20;56.60
22299;DHT22;11317;51.072;17.036;2022-10-15T00:46:39;12.10;76.10
22299;DHT22;11317;51.072;17.036;2022-10-15T00:51:47;11.90;82.10
22299;DHT22;11317;51.072;17.036;2022-10-15T00:54:14;11.80;93.60
22299;DHT22;11317;51.072;17.036;2022-10-15T00:56:42;11.70;90.40
22299;DHT22;11317;51.072;17.036;2022-10-15T00:59:09;11.70;96.90
22299;DHT22;11317;51.072;17.036;2022-10-15T01:04:03;11.20;99.90
22299;DHT22;11317;51.072;17.036;2022-10-15T01:06:30;11.10;99.90
22299;DHT22;11317;51.072;17.036;2022-10-15T01:11:44;11.00;99.90
22299;DHT22;11317;51.072;17.036;2022-10-15T01:14:29;10.40;99.90
22299;DHT22;11317;51.072;17.036;2022-10-15T01:17:20;10.80;99.90
22299;DHT22;11317;51.072;17.036;2022-10-15T01:20:29;10.70;99.90
22299;DHT22;11317;51.072;17.036;2022-10-15T01:30:49;10.40;99.90
22299;DHT22;11317;51.072;17.036;2022-10-15T01:33:24;10.40;99.90
22299;DHT22;11317;51.072;17.036;2022-10-15T01:35:55;10.10;99.90
22299;DHT22;11317;51.072;17.036;2022-10-15T01:38:54;10.30;99.90
22299;DHT22;11317;51.072;17.036;2022-10-15T01:41:38;10.30;99.90
22299;DHT22;11317;51.072;17.036;2022-10-15T01:44:14;10.20;99.90
22299;DHT22;11317;51.072;17.036;2022-10-15T01:46:55;10.20;99.90
22299;DHT22;11317;51.072;17.036;2022-10-15T01:49:27;10.10;99.90
22299;DHT22;11317;51.072;17.036;2022-10-15T01:51:53;10.00;99.90
22299;DHT22;11317;51.072;17.036;2022-10-15T01:54:23;10.00;99.90
22299;DHT22;11317;51.072;17.036;2022-10-15T01:56:50;10.00;99.90
22299;DHT22;11317;51.072;17.036;2022-10-15T01:59:29;10.00;99.90
22299;DHT22;11317;51.072;17.036;2022-10-15T02:04:28;9.90;99.90
22299;DHT22;11317;51.072;17.036;2022-10-15T02:07:14;9.70;99.90
22299;DHT22;11317;51.072;17.036;2022-10-15T02:15:05;10.00;99.90
22299;DHT22;11317;51.072;17.036;2022-10-15T02:18:01;10.00;99.90
22299;DHT22;11317;51.072;17.036;2022-10-15T02:23:35;9.80;99.90
22299;DHT22;11317;51.072;17.036;2022-10-15T02:26:05;10.30;99.90
22299;DHT22;11317;51.072;17.036;2022-10-15T02:28:32;10.10;99.90
22299;DHT22;11317;51.072;17.036;2022-10-15T02:31:00;9.90;99.90
22299;DHT22;11317;51.072;17.036;2022-10-15T02:33:26;10.00;99.90
22299;DHT22;11317;51.072;17.036;2022-10-15T02:35:54;9.90;99.90
22299;DHT22;11317;51.072;17.036;2022-10-15T02:38:22;9.90;99.90
22299;DHT22;11317;51.072;17.036;2022-10-15T02:40:49;10.70;99.90
22299;DHT22;11317;51.072;17.036;2022-10-15T02:43:19;10.00;99.90
22299;DHT22;11317;51.072;17.036;2022-10-15T02:45:46;10.00;99.90
22299;DHT22;11317;51.072;17.036;2022-10-15T02:53:04;9.60;99.90
22299;DHT22;11317;51.072;17.036;2022-10-15T02:57:56;9.60;99.90
22299;DHT22;11317;51.072;17.036;2022-10-15T03:10:06;9.80;99.90
22299;DHT22;11317;51.072;17.036;2022-10-15T03:29:33;9.80;99.90
22299;DHT22;11317;51.072;17.036;2022-10-15T03:39:17;9.50;99.90
22299;DHT22;11317;51.072;17.036;2022-10-15T03:44:09;9.80;99.90
22299;DHT22;11317;51.072;17.036;2022-10-15T03:51:27;9.70;99.90
22299;DHT22;11317;51.072;17.036;2022-10-15T03:53:52;10.00;99.90
22299;DHT22;11317;51.072;17.036;2022-10-15T03:56:18;10.00;99.90
22299;DHT22;11317;51.072;17.036;2022-10-15T03:58:44;9.60;99.90
22299;DHT22;11317;51.072;17.036;2022-10-15T04:01:11;9.70;99.90
22299;DHT22;11317;51.072;17.036;2022-10-15T04:03:38;10.00;99.90
22299;DHT22;11317;51.072;17.036;2022-10-15T04:06:04;10.00;99.90
22299;DHT22;11317;51.072;17.036;2022-10-15T04:08:30;10.20;99.90
22299;DHT22;11317;51.072;17.036;2022-10-15T04:10:56;9.80;99.90
22299;DHT22;11317;51.072;17.036;2022-10-15T04:15:49;10.30;99.90
22299;DHT22;11317;51.072;17.036;2022-10-15T04:18:15;9.90;99.90
22299;DHT22;11317;51.072;17.036;2022-10-15T04:23:07;9.80;99.90
22299;DHT22;11317;51.072;17.036;2022-10-15T04:27:59;9.80;99.90
22299;DHT22;11317;51.072;17.036;2022-10-15T04:35:18;10.10;99.90
22299;DHT22;11317;51.072;17.036;2022-10-15T04:40:10;9.20;99.90
22299;DHT22;11317;51.072;17.036;2022-10-15T04:45:02;9.90;99.90
22299;DHT22;11317;51.072;17.036;2022-10-15T04:57:12;10.00;99.90
22299;DHT22;11317;51.072;17.036;2022-10-15T05:14:14;10.30;99.90
22299;DHT22;11317;51.072;17.036;2022-10-15T05:16:40;10.70;99.90
22299;DHT22;11317;51.072;17.036;2022-10-15T05:19:06;10.40;99.90
22299;DHT22;11317;51.072;17.036;2022-10-15T05:21:34;10.30;99.90
22299;DHT22;11317;51.072;17.036;2022-10-15T05:24:00;10.20;99.90
22299;DHT22;11317;51.072;17.036;2022-10-15T05:26:27;10.80;99.90
22299;DHT22;11317;51.072;17.036;2022-10-15T05:28:55;10.60;99.90
22299;DHT22;11317;51.072;17.036;2022-10-15T05:31:23;10.60;99.90
22299;DHT22;11317;51.072;17.036;2022-10-15T05:33:51;10.60;99.90
22299;DHT22;11317;51.072;17.036;2022-10-15T05:38:52;10.50;99.90
22299;DHT22;11317;51.072;17.036;2022-10-15T05:41:18;10.30;99.90
22299;DHT22;11317;51.072;17.036;2022-10-15T05:43:49;10.60;99.90
22299;DHT22;11317;51.072;17.036;2022-10-15T05:48:41;10.90;99.90
22299;DHT22;11317;51.072;17.036;2022-10-15T05:51:10;10.90;99.90
22299;DHT22;11317;51.072;17.036;2022-10-15T05:53:36;11.00;99.90
22299;DHT22;11317;51.072;17.036;2022-10-15T05:56:03;10.50;99.90
22299;DHT22;11317;51.072;17.036;2022-10-15T05:58:29;10.90;99.90
22299;DHT22;11317;51.072;17.036;2022-10-15T06:00:56;10.80;99.90
22299;DHT22;11317;51.072;17.036;2022-10-15T06:03:22;10.90;99.90
22299;DHT22;11317;51.072;17.036;2022-10-15T06:05:48;10.90;99.90
22299;DHT22;11317;51.072;17.036;2022-10-15T06:13:07;11.10;99.90
22299;DHT22;11317;51.072;17.036;2022-10-15T06:20:26;11.20;99.90
22299;DHT22;11317;51.072;17.036;2022-10-15T06:22:58;11.30;99.90
22299;DHT22;11317;51.072;17.036;2022-10-15T06:25:26;11.10;99.90
22299;DHT22;11317;51.072;17.036;2022-10-15T06:32:48;11.10;99.90
22299;DHT22;11317;51.072;17.036;2022-10-15T06:35:15;11.00;99.90
22299;DHT22;11317;51.072;17.036;2022-10-15T06:40:08;11.50;99.90
22299;DHT22;11317;51.072;17.036;2022-10-15T06:45:00;11.60;99.90
22299;DHT22;11317;51.072;17.036;2022-10-15T06:57:11;13.00;99.90
22299;DHT22;11317;51.072;17.036;2022-10-15T06:59:37;12.60;99.90
22299;DHT22;11317;51.072;17.036;2022-10-15T07:02:03;12.70;96.40
22299;DHT22;11317;51.072;17.036;2022-10-15T07:11:46;13.30;29.40
22299;DHT22;11317;51.072;17.036;2022-10-15T07:16:38;13.90;30.00
22299;DHT22;11317;51.072;17.036;2022-10-15T07:19:04;13.70;1.00
22299;DHT22;11317;51.072;17.036;2022-10-15T07:21:30;14.00;15.00
22299;DHT22;11317;51.072;17.036;2022-10-15T07:23:56;13.50;5.30
22299;DHT22;11317;51.072;17.036;2022-10-15T07:26:21;13.40;1.00
22299;DHT22;11317;51.072;17.036;2022-10-15T07:33:41;13.80;7.70
22299;DHT22;11317;51.072;17.036;2022-10-15T07:36:09;14.00;1.00
22299;DHT22;11317;51.072;17.036;2022-10-15T07:38:37;14.20;1.00
22299;DHT22;11317;51.072;17.036;2022-10-15T07:41:05;14.30;1.00
22299;DHT22;11317;51.072;17.036;2022-10-15T07:43:31;15.00;7.30
22299;DHT22;11317;51.072;17.036;2022-10-15T07:45:57;14.00;1.00
22299;DHT22;11317;51.072;17.036;2022-10-15T07:48:23;14.10;1.00
22299;DHT22;11317;51.072;17.036;2022-10-15T07:50:56;14.40;1.00
22299;DHT22;11317;51.072;17.036;2022-10-15T07:55:48;15.00;1.00
22299;DHT22;11317;51.072;17.036;2022-10-15T08:05:33;15.10;1.00
22299;DHT22;11317;51.072;17.036;2022-10-15T08:07:59;15.10;1.00
22299;DHT22;11317;51.072;17.036;2022-10-15T08:12:51;15.90;1.00
22299;DHT22;11317;51.072;17.036;2022-10-15T08:15:17;15.70;1.00
22299;DHT22;11317;51.072;17.036;2022-10-15T08:17:42;16.50;1.00
22299;DHT22;11317;51.072;17.036;2022-10-15T08:22:35;15.40;1.00
22299;DHT22;11317;51.072;17.036;2022-10-15T08:25:00;14.90;1.00
22299;DHT22;11317;51.072;17.036;2022-10-15T08:27:26;15.00;1.00
22299;DHT22;11317;51.072;17.036;2022-10-15T08:29:52;15.50;1.00
22299;DHT22;11317;51.072;17.036;2022-10-15T08:34:43;15.30;1.00
22299;DHT22;11317;51.072;17.036;2022-10-15T08:37:09;15.60;1.00
22299;DHT22;11317;51.072;17.036;2022-10-15T08:42:04;15.60;1.00
22299;DHT22;11317;51.072;17.036;2022-10-15T08:44:42;15.70;1.00
22299;DHT22;11317;51.072;17.036;2022-10-15T08:47:27;15.60;1.00
22299;DHT22;11317;51.072;17.036;2022-10-15T08:49:55;15.20;1.00
22299;DHT22;11317;51.072;17.036;2022-10-15T08:57:38;14.90;57.90
22299;DHT22;11317;51.072;17.036;2022-10-15T09:00:14;15.00;59.70
22299;DHT22;11317;51.072;17.036;2022-10-15T09:02:55;14.80;92.60
22299;DHT22;11317;51.072;17.036;2022-10-15T09:05:30;15.50;97.70
22299;DHT22;11317;51.072;17.036;2022-10-15T09:10:56;14.60;99.90
22299;DHT22;11317;51.072;17.036;2022-10-15T09:13:32;14.40;99.90
22299;DHT22;11317;51.072;17.036;2022-10-15T09:18:43;14.40;99.90
22299;DHT22;11317;51.072;17.036;2022-10-15T09:28:51;15.10;99.90
22299;DHT22;11317;51.072;17.036;2022-10-15T09:31:20;15.20;99.90
22299;DHT22;11317;51.072;17.036;2022-10-15T09:34:25;15.30;96.20
22299;DHT22;11317;51.072;17.036;2022-10-15T09:36:50;15.40;71.40
22299;DHT22;11317;51.072;17.036;2022-10-15T09:39:43;15.60;74.20
22299;DHT22;11317;51.072;17.036;2022-10-15T09:42:37;15.50;61.40
22299;DHT22;11317;51.072;17.036;2022-10-15T09:45:09;15.60;63.40
22299;DHT22;11317;51.072;17.036;2022-10-15T09:47:35;15.50;63.40
22299;DHT22;11317;51.072;17.036;2022-10-15T09:50:03;15.70;47.90
22299;DHT22;11317;51.072;17.036;2022-10-15T10:00:09;16.00;5.20
22299;DHT22;11317;51.072;17.036;2022-10-15T10:02:36;16.30;1.00
22299;DHT22;11317;51.072;17.036;2022-10-15T10:05:23;15.90;1.00
22299;DHT22;11317;51.072;17.036;2022-10-15T10:08:10;15.90;1.00
22299;DHT22;11317;51.072;17.036;2022-10-15T10:10:41;16.10;5.30
22299;DHT22;11317;51.072;17.036;2022-10-15T10:13:24;15.80;9.80
22299;DHT22;11317;51.072;17.036;2022-10-15T10:15:52;15.70;7.30
22299;DHT22;11317;51.072;17.036;2022-10-15T10:18:21;15.60;22.30
22299;DHT22;11317;51.072;17.036;2022-10-15T10:20:59;15.90;1.00
22299;DHT22;11317;51.072;17.036;2022-10-15T10:23:31;16.00;10.60
22299;DHT22;11317;51.072;17.036;2022-10-15T10:26:01;16.00;1.00
22299;DHT22;11317;51.072;17.036;2022-10-15T10:28:34;16.10;1.00
22299;DHT22;11317;51.072;17.036;2022-10-15T10:31:04;15.60;1.00
22299;DHT22;11317;51.072;17.036;2022-10-15T10:38:31;16.00;1.00
22299;DHT22;11317;51.072;17.036;2022-10-15T10:41:02;16.10;1.00
22299;DHT22;11317;51.072;17.036;2022-10-15T10:43:33;16.10;1.00
22299;DHT22;11317;51.072;17.036;2022-10-15T10:46:04;16.10;1.00
22299;DHT22;11317;51.072;17.036;2022-10-15T10:48:43;16.40;1.00
22299;DHT22;11317;51.072;17.036;2022-10-15T10:53:50;16.30;1.00
22299;DHT22;11317;51.072;17.036;2022-10-15T10:56:21;16.50;1.00
22299;DHT22;11317;51.072;17.036;2022-10-15T10:58:47;16.40;1.00
22299;DHT22;11317;51.072;17.036;2022-10-15T11:01:15;16.40;1.00
22299;DHT22;11317;51.072;17.036;2022-10-15T11:03:43;16.30;1.00
22299;DHT22;11317;51.072;17.036;2022-10-15T11:20:29;17.10;1.00
22299;DHT22;11317;51.072;17.036;2022-10-15T11:30:53;17.00;1.00
22299;DHT22;11317;51.072;17.036;2022-10-15T11:33:28;17.30;1.00
22299;DHT22;11317;51.072;17.036;2022-10-15T11:41:24;17.60;1.00
22299;DHT22;11317;51.072;17.036;2022-10-15T11:46:45;17.70;99.90
22299;DHT22;11317;51.072;17.036;2022-10-15T11:57:31;18.10;99.90
22299;DHT22;11317;51.072;17.036;2022-10-15T12:00:32;18.20;1.00
22299;DHT22;11317;51.072;17.036;2022-10-15T12:03:09;18.20;1.00
22299;DHT22;11317;51.072;17.036;2022-10-15T12:05:53;18.30;1.00
22299;DHT22;11317;51.072;17.036;2022-10-15T12:08:20;18.00;10.50
22299;DHT22;11317;51.072;17.036;2022-10-15T12:27:25;18.50;99.90
22299;DHT22;11317;51.072;17.036;2022-10-15T12:30:12;17.80;1.00
22299;DHT22;11317;51.072;17.036;2022-10-15T12:32:43;17.70;99.90
22299;DHT22;11317;51.072;17.036;2022-10-15T12:37:42;17.90;1.00
22299;DHT22;11317;51.072;17.036;2022-10-15T12:43:11;17.80;1.00
22299;DHT22;11317;51.072;17.036;2022-10-15T12:45:39;17.90;99.90
22299;DHT22;11317;51.072;17.036;2022-10-15T12:50:35;18.00;99.90
22299;DHT22;11317;51.072;17.036;2022-10-15T12:53:04;18.00;1.00
22299;DHT22;11317;51.072;17.036;2022-10-15T12:55:35;18.10;99.90
22299;DHT22;11317;51.072;17.036;2022-10-15T12:58:33;17.80;1.00
22299;DHT22;11317;51.072;17.036;2022-10-15T13:08:49;17.90;1.00
22299;DHT22;11317;51.072;17.036;2022-10-15T13:16:41;17.60;1.00
22299;DHT22;11317;51.072;17.036;2022-10-15T13:19:19;17.90;99.90
22299;DHT22;11317;51.072;17.036;2022-10-15T13:21:47;18.20;1.00
22299;DHT22;11317;51.072;17.036;2022-10-15T13:24:22;17.80;1.00
22299;DHT22;11317;51.072;17.036;2022-10-15T13:26:48;18.10;99.90
22299;DHT22;11317;51.072;17.036;2022-10-15T13:29:22;17.90;99.90
22299;DHT22;11317;51.072;17.036;2022-10-15T13:31:49;19.10;1.00
22299;DHT22;11317;51.072;17.036;2022-10-15T13:39:32;18.10;1.00
22299;DHT22;11317;51.072;17.036;2022-10-15T13:42:15;17.60;1.00
22299;DHT22;11317;51.072;17.036;2022-10-15T13:44:42;17.80;48.60
22299;DHT22;11317;51.072;17.036;2022-10-15T13:54:43;17.30;1.00
22299;DHT22;11317;51.072;17.036;2022-10-15T13:57:13;17.30;1.00
22299;DHT22;11317;51.072;17.036;2022-10-15T13:59:43;17.30;1.00
22299;DHT22;11317;51.072;17.036;2022-10-15T14:02:11;17.10;1.00
22299;DHT22;11317;51.072;17.036;2022-10-15T14:04:37;17.90;1.00
22299;DHT22;11317;51.072;17.036;2022-10-15T14:07:23;18.40;1.00
22299;DHT22;11317;51.072;17.036;2022-10-15T14:09:52;17.00;1.00
22299;DHT22;11317;51.072;17.036;2022-10-15T14:12:18;17.00;99.90
22299;DHT22;11317;51.072;17.036;2022-10-15T14:14:45;17.80;1.00
22299;DHT22;11317;51.072;17.036;2022-10-15T14:17:22;17.10;99.90
22299;DHT22;11317;51.072;17.036;2022-10-15T14:19:56;18.00;1.00
22299;DHT22;11317;51.072;17.036;2022-10-15T14:22:25;16.50;1.00
22299;DHT22;11317;51.072;17.036;2022-10-15T14:24:53;16.70;1.00
22299;DHT22;11317;51.072;17.036;2022-10-15T14:27:27;16.60;99.90
22299;DHT22;11317;51.072;17.036;2022-10-15T14:29:58;16.90;99.90
22299;DHT22;11317;51.072;17.036;2022-10-15T14:32:30;16.40;99.90
22299;DHT22;11317;51.072;17.036;2022-10-15T14:34:56;16.50;71.50
22299;DHT22;11317;51.072;17.036;2022-10-15T14:37:42;16.80;99.90
22299;DHT22;11317;51.072;17.036;2022-10-15T14:42:38;16.80;98.80
22299;DHT22;11317;51.072;17.036;2022-10-15T14:47:38;16.90;99.90
22299;DHT22;11317;51.072;17.036;2022-10-15T14:50:05;16.90;99.90
22299;DHT22;11317;51.072;17.036;2022-10-15T14:52:31;16.70;99.90
22299;DHT22;11317;51.072;17.036;2022-10-15T14:55:04;16.50;99.90
22299;DHT22;11317;51.072;17.036;2022-10-15T14:57:34;16.50;99.90
22299;DHT22;11317;51.072;17.036;2022-10-15T15:00:02;16.10;99.90
22299;DHT22;11317;51.072;17.036;2022-10-15T15:02:29;16.30;99.90
22299;DHT22;11317;51.072;17.036;2022-10-15T15:07:36;16.30;1.00
22299;DHT22;11317;51.072;17.036;2022-10-15T15:10:03;16.60;1.00
22299;DHT22;11317;51.072;17.036;2022-10-15T15:12:29;16.60;99.90
22299;DHT22;11317;51.072;17.036;2022-10-15T15:14:58;16.50;1.00
22299;DHT22;11317;51.072;17.036;2022-10-15T15:17:27;16.70;1.00
22299;DHT22;11317;51.072;17.036;2022-10-15T15:19:55;16.60;1.00
22299;DHT22;11317;51.072;17.036;2022-10-15T15:22:30;16.60;1.00
22299;DHT22;11317;51.072;17.036;2022-10-15T15:24:58;16.70;99.90
22299;DHT22;11317;51.072;17.036;2022-10-15T15:27:29;16.70;1.00
22299;DHT22;11317;51.072;17.036;2022-10-15T15:29:56;16.40;1.00
22299;DHT22;11317;51.072;17.036;2022-10-15T15:32:23;16.10;1.00
22299;DHT22;11317;51.072;17.036;2022-10-15T15:34:50;16.70;1.00
22299;DHT22;11317;51.072;17.036;2022-10-15T15:37:20;16.10;1.00
22299;DHT22;11317;51.072;17.036;2022-10-15T15:39:46;16.10;51.60
22299;DHT22;11317;51.072;17.036;2022-10-15T15:42:21;16.00;99.90
22299;DHT22;11317;51.072;17.036;2022-10-15T15:44:47;15.90;99.90
22299;DHT22;11317;51.072;17.036;2022-10-15T15:47:13;15.80;1.00
22299;DHT22;11317;51.072;17.036;2022-10-15T15:49:40;15.70;99.90
22299;DHT22;11317;51.072;17.036;2022-10-15T15:52:07;16.00;99.90
22299;DHT22;11317;51.072;17.036;2022-10-15T15:54:34;15.80;99.90
22299;DHT22;11317;51.072;17.036;2022-10-15T15:57:00;15.90;99.90
22299;DHT22;11317;51.072;17.036;2022-10-15T15:59:26;15.70;99.90
22299;DHT22;11317;51.072;17.036;2022-10-15T16:01:51;15.60;99.90
22299;DHT22;11317;51.072;17.036;2022-10-15T16:04:17;16.30;99.90
22299;DHT22;11317;51.072;17.036;2022-10-15T16:06:43;15.80;99.90
22299;DHT22;11317;51.072;17.036;2022-10-15T16:09:16;15.80;94.40
22299;DHT22;11317;51.072;17.036;2022-10-15T16:11:42;15.70;99.90
22299;DHT22;11317;51.072;17.036;2022-10-15T16:14:08;16.10;1.00
22299;DHT22;11317;51.072;17.036;2022-10-15T16:16:34;15.70;1.00
22299;DHT22;11317;51.072;17.036;2022-10-15T16:19:00;15.30;1.00
22299;DHT22;11317;51.072;17.036;2022-10-15T16:21:26;15.70;1.00
22299;DHT22;11317;51.072;17.036;2022-10-15T16:23:52;15.80;99.90
22299;DHT22;11317;51.072;17.036;2022-10-15T16:26:20;15.70;99.90
22299;DHT22;11317;51.072;17.036;2022-10-15T16:28:45;16.10;1.00
22299;DHT22;11317;51.072;17.036;2022-10-15T16:31:20;15.80;1.00
22299;DHT22;11317;51.072;17.036;2022-10-15T16:33:46;15.80;1.00
22299;DHT22;11317;51.072;17.036;2022-10-15T16:36:12;15.80;1.00
22299;DHT22;11317;51.072;17.036;2022-10-15T16:38:39;15.90;1.00
22299;DHT22;11317;51.072;17.036;2022-10-15T16:41:06;15.80;99.90
22299;DHT22;11317;51.072;17.036;2022-10-15T16:43:33;15.90;1.00
22299;DHT22;11317;51.072;17.036;2022-10-15T16:45:59;15.90;1.00
22299;DHT22;11317;51.072;17.036;2022-10-15T16:48:26;15.80;1.00
22299;DHT22;11317;51.072;17.036;2022-10-15T16:51:01;16.80;1.00
22299;DHT22;11317;51.072;17.036;2022-10-15T16:53:27;15.60;1.00
22299;DHT22;11317;51.072;17.036;2022-10-15T16:56:01;16.80;78.10
22299;DHT22;11317;51.072;17.036;2022-10-15T16:58:28;15.40;1.00
22299;DHT22;11317;51.072;17.036;2022-10-15T17:00:57;19.00;99.90
22299;DHT22;11317;51.072;17.036;2022-10-15T17:03:23;15.60;99.90
22299;DHT22;11317;51.072;17.036;2022-10-15T17:08:15;15.50;99.90
22299;DHT22;11317;51.072;17.036;2022-10-15T17:10:42;16.60;99.90
22299;DHT22;11317;51.072;17.036;2022-10-15T17:13:09;15.70;99.90
22299;DHT22;11317;51.072;17.036;2022-10-15T17:15:35;15.80;99.90
22299;DHT22;11317;51.072;17.036;2022-10-15T17:18:00;15.40;99.90
22299;DHT22;11317;51.072;17.036;2022-10-15T17:20:26;15.70;99.90
22299;DHT22;11317;51.072;17.036;2022-10-15T17:22:52;15.70;26.70
22299;DHT22;11317;51.072;17.036;2022-10-15T17:25:17;15.80;99.90
22299;DHT22;11317;51.072;17.036;2022-10-15T17:27:44;15.80;1.00
22299;DHT22;11317;51.072;17.036;2022-10-15T17:30:09;16.50;1.00
22299;DHT22;11317;51.072;17.036;2022-10-15T17:32:35;15.70;1.00
22299;DHT22;11317;51.072;17.036;2022-10-15T17:35:01;15.70;1.00
22299;DHT22;11317;51.072;17.036;2022-10-15T17:37:26;15.60;1.00
22299;DHT22;11317;51.072;17.036;2022-10-15T17:39:52;15.80;1.00
22299;DHT22;11317;51.072;17.036;2022-10-15T17:42:17;15.80;1.00
22299;DHT22;11317;51.072;17.036;2022-10-15T17:44:45;12.20;1.00
22299;DHT22;11317;51.072;17.036;2022-10-15T17:47:11;15.80;1.00
22299;DHT22;11317;51.072;17.036;2022-10-15T17:49:37;15.70;1.00
22299;DHT22;11317;51.072;17.036;2022-10-15T17:52:03;15.70;1.00
22299;DHT22;11317;51.072;17.036;2022-10-15T17:54:28;15.50;1.00
22299;DHT22;11317;51.072;17.036;2022-10-15T17:56:54;15.30;1.00
22299;DHT22;11317;51.072;17.036;2022-10-15T17:59:20;15.70;1.00
22299;DHT22;11317;51.072;17.036;2022-10-15T18:01:46;15.60;19.70
22299;DHT22;11317;51.072;17.036;2022-10-15T18:04:11;15.70;99.90
22299;DHT22;11317;51.072;17.036;2022-10-15T18:06:37;15.20;99.90
22299;DHT22;11317;51.072;17.036;2022-10-15T18:09:03;15.60;99.90
22299;DHT22;11317;51.072;17.036;2022-10-15T18:11:32;15.70;99.90
22299;DHT22;11317;51.072;17.036;2022-10-15T18:13:58;15.70;99.90
22299;DHT22;11317;51.072;17.036;2022-10-15T18:16:24;15.70;99.90
22299;DHT22;11317;51.072;17.036;2022-10-15T18:18:54;15.70;99.90
22299;DHT22;11317;51.072;17.036;2022-10-15T18:21:21;15.00;99.90
22299;DHT22;11317;51.072;17.036;2022-10-15T18:23:47;15.40;99.90
22299;DHT22;11317;51.072;17.036;2022-10-15T18:26:18;15.60;99.90
22299;DHT22;11317;51.072;17.036;2022-10-15T18:28:45;15.50;1.00
22299;DHT22;11317;51.072;17.036;2022-10-15T18:31:11;15.10;1.00
22299;DHT22;11317;51.072;17.036;2022-10-15T18:33:39;15.40;1.00
22299;DHT22;11317;51.072;17.036;2022-10-15T18:36:07;15.30;1.00
22299;DHT22;11317;51.072;17.036;2022-10-15T18:38:33;15.30;1.00
22299;DHT22;11317;51.072;17.036;2022-10-15T18:40:58;15.30;1.00
22299;DHT22;11317;51.072;17.036;2022-10-15T18:43:24;15.20;1.00
22299;DHT22;11317;51.072;17.036;2022-10-15T18:45:50;15.00;1.00
22299;DHT22;11317;51.072;17.036;2022-10-15T18:48:16;15.10;1.00
22299;DHT22;11317;51.072;17.036;2022-10-15T18:50:41;15.00;1.00
22299;DHT22;11317;51.072;17.036;2022-10-15T18:53:08;14.60;1.00
22299;DHT22;11317;51.072;17.036;2022-10-15T18:55:34;14.80;1.00
22299;DHT22;11317;51.072;17.036;2022-10-15T18:58:00;15.00;4.40
22299;DHT22;11317;51.072;17.036;2022-10-15T19:00:27;14.30;7.60
22299;DHT22;11317;51.072;17.036;2022-10-15T19:02:53;14.70;17.10
22299;DHT22;11317;51.072;17.036;2022-10-15T19:05:21;14.80;22.00
22299;DHT22;11317;51.072;17.036;2022-10-15T19:07:46;14.60;35.20
22299;DHT22;11317;51.072;17.036;2022-10-15T19:10:12;14.40;40.30
22299;DHT22;11317;51.072;17.036;2022-10-15T19:12:37;14.50;32.50
22299;DHT22;11317;51.072;17.036;2022-10-15T19:15:03;13.90;58.60
22299;DHT22;11317;51.072;17.036;2022-10-15T19:17:29;14.00;82.40
22299;DHT22;11317;51.072;17.036;2022-10-15T19:19:55;14.00;74.30
22299;DHT22;11317;51.072;17.036;2022-10-15T19:22:20;14.30;64.10
22299;DHT22;11317;51.072;17.036;2022-10-15T19:24:46;13.70;94.00
22299;DHT22;11317;51.072;17.036;2022-10-15T19:27:12;14.10;90.90
22299;DHT22;11317;51.072;17.036;2022-10-15T19:29:38;14.00;99.80
22299;DHT22;11317;51.072;17.036;2022-10-15T19:32:04;14.00;99.90
22299;DHT22;11317;51.072;17.036;2022-10-15T19:34:29;13.80;99.90
22299;DHT22;11317;51.072;17.036;2022-10-15T19:36:55;13.80;99.90
22299;DHT22;11317;51.072;17.036;2022-10-15T19:39:22;13.80;99.90
22299;DHT22;11317;51.072;17.036;2022-10-15T19:41:49;13.80;99.90
22299;DHT22;11317;51.072;17.036;2022-10-15T19:44:16;13.80;99.90
22299;DHT22;11317;51.072;17.036;2022-10-15T19:46:42;13.70;99.90
22299;DHT22;11317;51.072;17.036;2022-10-15T19:49:10;13.80;99.90
22299;DHT22;11317;51.072;17.036;2022-10-15T19:51:36;13.60;99.90
22299;DHT22;11317;51.072;17.036;2022-10-15T19:54:02;13.40;99.90
22299;DHT22;11317;51.072;17.036;2022-10-15T19:56:28;13.30;99.90
22299;DHT22;11317;51.072;17.036;2022-10-15T19:58:58;13.40;99.90
22299;DHT22;11317;51.072;17.036;2022-10-15T20:01:24;13.40;99.90
22299;DHT22;11317;51.072;17.036;2022-10-15T20:03:50;13.20;99.90
22299;DHT22;11317;51.072;17.036;2022-10-15T20:06:17;12.80;99.90
22299;DHT22;11317;51.072;17.036;2022-10-15T20:11:09;13.20;99.90
22299;DHT22;11317;51.072;17.036;2022-10-15T20:13:36;13.30;99.90
22299;DHT22;11317;51.072;17.036;2022-10-15T20:16:05;13.40;99.90
22299;DHT22;11317;51.072;17.036;2022-10-15T20:18:31;13.20;99.90
22299;DHT22;11317;51.072;17.036;2022-10-15T20:20:57;12.90;99.90
22299;DHT22;11317;51.072;17.036;2022-10-15T20:23:22;13.10;99.90
22299;DHT22;11317;51.072;17.036;2022-10-15T20:25:51;13.50;99.90
22299;DHT22;11317;51.072;17.036;2022-10-15T20:28:17;13.00;99.90
22299;DHT22;11317;51.072;17.036;2022-10-15T20:30:43;12.90;99.90
22299;DHT22;11317;51.072;17.036;2022-10-15T20:33:09;13.30;99.90
22299;DHT22;11317;51.072;17.036;2022-10-15T20:35:38;12.90;99.90
22299;DHT22;11317;51.072;17.036;2022-10-15T20:38:04;12.90;99.90
22299;DHT22;11317;51.072;17.036;2022-10-15T20:40:31;12.90;99.90
22299;DHT22;11317;51.072;17.036;2022-10-15T20:42:57;12.90;99.90
22299;DHT22;11317;51.072;17.036;2022-10-15T20:45:26;13.00;99.90
22299;DHT22;11317;51.072;17.036;2022-10-15T20:47:54;12.50;99.90
22299;DHT22;11317;51.072;17.036;2022-10-15T20:50:27;12.90;99.90
22299;DHT22;11317;51.072;17.036;2022-10-15T20:52:55;12.50;99.90
22299;DHT22;11317;51.072;17.036;2022-10-15T20:55:21;12.90;99.90
22299;DHT22;11317;51.072;17.036;2022-10-15T21:00:13;12.90;99.90
22299;DHT22;11317;51.072;17.036;2022-10-15T21:05:06;12.60;99.90
22299;DHT22;11317;51.072;17.036;2022-10-15T21:07:32;12.80;99.90
22299;DHT22;11317;51.072;17.036;2022-10-15T21:09:57;12.40;99.90